Time;durP1;ratioP1;P1;durP2;ratioP2;P2;SDS_P1;SDS_P2;PMS_P1;PMS_P2;Temp;Humidity;BMP_temperature;BMP_pressure;BME280_temperature;BME280_humidity;BME280_pressure;Samples;Min_cycle;Max_cycle;Signal;HPM_P1;HPM_P2
2022/03/26 00:01:30;;;;;;;146.80;92.30;;;6.20;99.90;;;;;;5110361;28;20047;-79
2022/03/26 00:03:55;;;;;;;132.07;84.65;;;6.20;99.90;;;;;;5094994;28;20040;-80
2022/03/26 00:06:21;;;;;;;136.85;86.88;;;6.10;99.90;;;;;;5095581;28;20093;-79
2022/03/26 00:08:49;;;;;;;160.05;93.38;;;6.10;99.90;;;;;;5112492;28;20323;-78
2022/03/26 00:11:15;;;;;;;142.50;88.53;;;6.10;99.90;;;;;;5108720;28;20051;-79
2022/03/26 00:13:41;;;;;;;152.43;93.53;;;6.10;99.90;;;;;;5108119;28;20079;-79
2022/03/26 00:16:07;;;;;;;143.15;87.30;;;6.00;99.90;;;;;;5112465;28;20144;-79
2022/03/26 00:18:32;;;;;;;140.23;87.32;;;5.90;99.90;;;;;;5110903;28;20027;-79
2022/03/26 00:20:58;;;;;;;142.50;92.93;;;5.90;99.90;;;;;;5113228;28;20485;-79
2022/03/26 00:23:24;;;;;;;144.52;89.82;;;5.90;99.90;;;;;;5109856;28;20138;-79
2022/03/26 00:25:50;;;;;;;156.77;91.65;;;5.90;99.90;;;;;;5108822;28;20409;-79
2022/03/26 00:28:16;;;;;;;149.20;92.97;;;5.90;99.90;;;;;;5107865;28;20456;-79
2022/03/26 00:30:42;;;;;;;156.98;96.20;;;6.00;99.90;;;;;;5108988;28;20047;-79
2022/03/26 00:33:07;;;;;;;157.10;95.18;;;6.00;99.90;;;;;;5109633;28;20411;-79
2022/03/26 00:35:33;;;;;;;153.95;93.93;;;5.90;99.90;;;;;;5109498;28;20393;-79
2022/03/26 00:37:59;;;;;;;161.77;92.32;;;5.80;99.90;;;;;;5109202;28;20047;-79
2022/03/26 00:40:25;;;;;;;153.60;94.03;;;5.70;99.90;;;;;;5110273;28;20036;-79
2022/03/26 00:42:50;;;;;;;161.13;91.47;;;5.70;99.90;;;;;;5108761;28;20417;-79
2022/03/26 00:45:16;;;;;;;167.10;102.90;;;5.70;99.90;;;;;;5108214;28;20088;-78
2022/03/26 00:47:42;;;;;;;144.68;88.65;;;5.70;99.90;;;;;;5108933;28;20039;-79
2022/03/26 00:50:08;;;;;;;144.73;87.90;;;5.70;99.90;;;;;;5108652;28;20027;-79
2022/03/26 00:52:34;;;;;;;135.98;83.05;;;5.60;99.90;;;;;;5103481;28;20044;-79
2022/03/26 00:54:59;;;;;;;152.10;94.93;;;5.60;99.90;;;;;;5107800;28;20123;-79
2022/03/26 00:57:25;;;;;;;156.90;96.90;;;5.50;99.90;;;;;;5115102;28;20122;-79
2022/03/26 00:59:51;;;;;;;143.73;85.25;;;5.60;99.90;;;;;;5104429;28;20048;-79
2022/03/26 01:02:17;;;;;;;153.98;93.10;;;5.50;99.90;;;;;;5099719;28;20104;-75
2022/03/26 01:04:43;;;;;;;155.25;95.55;;;5.50;99.90;;;;;;5109840;28;20083;-79
2022/03/26 01:07:08;;;;;;;147.98;90.38;;;5.50;99.90;;;;;;5114188;28;20076;-79
2022/03/26 01:09:34;;;;;;;155.95;91.88;;;5.50;99.90;;;;;;5110669;28;20055;-80
2022/03/26 01:12:00;;;;;;;155.82;94.97;;;5.40;99.90;;;;;;5098046;28;20075;-78
2022/03/26 01:14:25;;;;;;;164.20;99.20;;;5.50;99.90;;;;;;5111297;28;20509;-78
2022/03/26 01:16:51;;;;;;;153.43;91.50;;;5.50;99.90;;;;;;5115539;28;20039;-79
2022/03/26 01:19:17;;;;;;;147.18;91.35;;;5.40;99.90;;;;;;5100515;28;20043;-79
2022/03/26 01:21:42;;;;;;;147.15;94.93;;;5.40;99.90;;;;;;5112277;28;20553;-78
2022/03/26 01:24:08;;;;;;;141.20;86.90;;;5.40;99.90;;;;;;5111733;28;20063;-79
2022/03/26 01:26:34;;;;;;;156.50;93.85;;;5.40;99.90;;;;;;5109693;28;20050;-79
2022/03/26 01:29:00;;;;;;;148.85;88.90;;;5.40;99.90;;;;;;5109887;28;20036;-78
2022/03/26 01:31:26;;;;;;;150.63;91.95;;;5.40;99.90;;;;;;5104020;28;20046;-79
2022/03/26 01:33:51;;;;;;;149.82;88.28;;;5.30;99.90;;;;;;5112580;28;20050;-78
2022/03/26 01:36:17;;;;;;;146.57;93.80;;;5.30;99.90;;;;;;5112859;28;20071;-78
2022/03/26 01:38:43;;;;;;;143.32;89.70;;;5.30;99.90;;;;;;5112182;27;20397;-79
2022/03/26 01:41:10;;;;;;;148.68;94.05;;;5.30;99.90;;;;;;5111493;28;20063;-79
2022/03/26 01:43:36;;;;;;;135.15;84.88;;;5.30;99.90;;;;;;5112443;28;20084;-79
2022/03/26 01:46:01;;;;;;;142.30;85.10;;;5.30;99.90;;;;;;5110389;28;20485;-79
2022/03/26 01:48:27;;;;;;;134.73;87.38;;;5.20;99.90;;;;;;5104990;27;20036;-79
2022/03/26 01:50:53;;;;;;;148.52;92.45;;;5.20;99.90;;;;;;5111928;28;20503;-79
2022/03/26 01:53:18;;;;;;;154.45;97.43;;;5.20;99.90;;;;;;5111051;28;20050;-80
2022/03/26 01:55:44;;;;;;;148.60;91.88;;;5.20;99.90;;;;;;5110516;28;20044;-78
2022/03/26 01:58:10;;;;;;;143.40;92.57;;;5.20;99.90;;;;;;5111362;28;20462;-79
2022/03/26 02:00:36;;;;;;;158.82;94.07;;;5.20;99.90;;;;;;5109477;28;20039;-78
2022/03/26 02:03:02;;;;;;;163.00;95.32;;;5.20;99.90;;;;;;5111371;28;20079;-79
2022/03/26 02:05:29;;;;;;;159.45;95.97;;;5.10;99.90;;;;;;5110003;28;20032;-78
2022/03/26 02:07:55;;;;;;;171.27;97.78;;;5.10;99.90;;;;;;5109361;27;20101;-79
2022/03/26 02:10:21;;;;;;;163.45;96.93;;;5.10;99.90;;;;;;5105341;27;20036;-79
2022/03/26 02:12:47;;;;;;;146.80;90.85;;;5.10;99.90;;;;;;5104904;27;20421;-79
2022/03/26 02:15:13;;;;;;;155.63;92.78;;;5.10;99.90;;;;;;5112484;28;20047;-78
2022/03/26 02:17:39;;;;;;;154.73;95.45;;;5.10;99.90;;;;;;5110074;28;20047;-79
2022/03/26 02:20:10;;;;;;;158.00;96.68;;;5.10;99.90;;;;;;5110315;28;20397;-79
2022/03/26 02:22:37;;;;;;;156.45;94.13;;;5.10;99.90;;;;;;5108785;28;20318;-78
2022/03/26 02:25:05;;;;;;;166.30;94.75;;;5.10;99.90;;;;;;5109986;28;20374;-78
2022/03/26 02:27:31;;;;;;;173.50;100.35;;;5.00;99.90;;;;;;5111106;28;20048;-79
2022/03/26 02:29:57;;;;;;;164.45;95.88;;;5.00;99.90;;;;;;5110501;28;20036;-79
2022/03/26 02:32:25;;;;;;;165.30;97.18;;;4.90;99.90;;;;;;5111269;28;20126;-78
2022/03/26 02:34:51;;;;;;;164.32;98.15;;;4.90;99.90;;;;;;5098936;27;20405;-78
2022/03/26 02:37:17;;;;;;;168.23;101.53;;;4.80;99.90;;;;;;5111431;28;20493;-78
2022/03/26 02:39:44;;;;;;;156.57;95.85;;;4.80;99.90;;;;;;5111419;28;20047;-78
2022/03/26 02:42:11;;;;;;;176.05;96.68;;;4.70;99.90;;;;;;5106582;28;20076;-79
2022/03/26 02:44:37;;;;;;;186.80;101.13;;;4.70;99.90;;;;;;5110323;28;20130;-78
2022/03/26 02:47:02;;;;;;;171.27;102.00;;;4.70;99.90;;;;;;5100804;28;20126;-79
2022/03/26 02:49:28;;;;;;;169.50;97.35;;;4.70;99.90;;;;;;5109634;28;20069;-79
2022/03/26 02:51:54;;;;;;;175.95;100.25;;;4.70;99.90;;;;;;5104484;28;20110;-78
2022/03/26 02:54:19;;;;;;;166.20;95.32;;;4.80;99.90;;;;;;5110329;28;20040;-78
2022/03/26 02:56:50;;;;;;;172.45;103.18;;;4.70;99.90;;;;;;5108984;28;20043;-79
2022/03/26 02:59:17;;;;;;;164.20;95.88;;;4.70;99.90;;;;;;5108649;28;20638;-79
2022/03/26 03:01:44;;;;;;;168.82;94.38;;;4.70;99.90;;;;;;5107507;28;20466;-79
2022/03/26 03:04:09;;;;;;;171.27;96.15;;;4.60;99.90;;;;;;5110412;27;20051;-78
2022/03/26 03:06:35;;;;;;;170.48;96.53;;;4.70;99.90;;;;;;5108676;28;20127;-78
2022/03/26 03:09:02;;;;;;;161.05;92.63;;;4.60;99.90;;;;;;5109317;28;20044;-78
2022/03/26 03:11:28;;;;;;;159.63;95.72;;;4.70;99.90;;;;;;5108393;27;20119;-79
2022/03/26 03:13:53;;;;;;;182.75;97.63;;;4.60;99.90;;;;;;5109235;28;20127;-79
2022/03/26 03:16:19;;;;;;;164.63;97.43;;;4.70;99.90;;;;;;5110705;28;20036;-78
2022/03/26 03:18:45;;;;;;;177.88;103.97;;;4.70;99.90;;;;;;5108728;28;20108;-78
2022/03/26 03:21:10;;;;;;;170.10;93.32;;;4.70;99.90;;;;;;5110706;28;20040;-77
2022/03/26 03:23:36;;;;;;;173.70;101.95;;;4.60;99.90;;;;;;5108355;28;20554;-78
2022/03/26 03:26:01;;;;;;;188.73;104.60;;;4.50;99.90;;;;;;5104041;28;20071;-78
2022/03/26 03:28:27;;;;;;;171.45;101.10;;;4.50;99.90;;;;;;5110149;28;20031;-79
2022/03/26 03:30:52;;;;;;;169.55;97.80;;;4.60;99.90;;;;;;5108884;28;20087;-78
2022/03/26 03:33:18;;;;;;;169.63;95.05;;;4.50;99.90;;;;;;5110396;28;20036;-78
2022/03/26 03:35:44;;;;;;;167.75;92.47;;;4.50;99.90;;;;;;5110352;28;20130;-78
2022/03/26 03:38:09;;;;;;;167.48;94.75;;;4.50;99.90;;;;;;5110498;28;20039;-78
2022/03/26 03:40:35;;;;;;;165.32;94.65;;;4.50;99.90;;;;;;5104823;28;20468;-79
2022/03/26 03:43:01;;;;;;;181.90;97.75;;;4.50;99.90;;;;;;5108960;27;20035;-79
2022/03/26 03:45:26;;;;;;;163.75;93.90;;;4.50;99.90;;;;;;5108423;28;20048;-78
2022/03/26 03:47:52;;;;;;;159.35;95.20;;;4.40;99.90;;;;;;5096601;28;20039;-78
2022/03/26 03:50:18;;;;;;;161.57;92.68;;;4.40;99.90;;;;;;5102026;28;20562;-78
2022/03/26 03:52:44;;;;;;;161.57;91.88;;;4.40;99.90;;;;;;5108546;28;20116;-77
2022/03/26 03:55:10;;;;;;;182.77;98.97;;;4.40;99.90;;;;;;5112053;28;20070;-78
2022/03/26 03:57:40;;;;;;;172.68;97.95;;;4.30;99.90;;;;;;5108715;28;20043;-78
2022/03/26 04:00:06;;;;;;;182.95;101.13;;;4.30;99.90;;;;;;5107488;28;20050;-78
2022/03/26 04:02:33;;;;;;;169.82;94.50;;;4.30;99.90;;;;;;5103314;28;20494;-79
2022/03/26 04:04:58;;;;;;;185.88;104.60;;;4.30;99.90;;;;;;5114438;28;20047;-79
2022/03/26 04:07:24;;;;;;;194.60;102.97;;;4.30;99.90;;;;;;5111983;28;20032;-80
2022/03/26 04:09:49;;;;;;;169.43;96.85;;;4.30;99.90;;;;;;5111181;28;20036;-79
2022/03/26 04:12:15;;;;;;;178.40;95.75;;;4.30;99.90;;;;;;5102221;28;20096;-78
2022/03/26 04:14:43;;;;;;;179.52;97.93;;;4.40;99.90;;;;;;5106765;28;20042;-79
2022/03/26 04:17:12;;;;;;;169.93;93.75;;;4.30;99.90;;;;;;5104653;28;20174;-79
2022/03/26 04:19:39;;;;;;;183.53;100.17;;;4.30;99.90;;;;;;5102548;28;20047;-79
2022/03/26 04:22:08;;;;;;;168.82;96.25;;;4.30;99.90;;;;;;5109623;28;20305;-79
2022/03/26 04:24:36;;;;;;;158.45;89.72;;;4.30;99.90;;;;;;5110991;28;20051;-80
2022/03/26 04:27:03;;;;;;;169.00;98.40;;;4.30;99.90;;;;;;5105132;28;20062;-78
2022/03/26 04:29:29;;;;;;;193.93;100.07;;;4.30;99.90;;;;;;5111871;28;20047;-79
2022/03/26 04:31:54;;;;;;;155.75;91.68;;;4.30;99.90;;;;;;5111165;28;20103;-80
2022/03/26 04:34:20;;;;;;;160.10;89.88;;;4.20;99.90;;;;;;5105549;28;20040;-79
2022/03/26 04:36:46;;;;;;;181.25;96.35;;;4.00;99.90;;;;;;5117000;28;20044;-79
2022/03/26 04:39:11;;;;;;;149.35;85.85;;;4.10;99.90;;;;;;5116266;28;20047;-80
2022/03/26 04:41:37;;;;;;;158.52;86.47;;;3.90;99.90;;;;;;5114364;28;20040;-79
2022/03/26 04:44:03;;;;;;;151.52;85.63;;;3.80;99.90;;;;;;5112114;28;20043;-80
2022/03/26 04:46:29;;;;;;;148.00;87.13;;;3.70;99.90;;;;;;5110225;28;20466;-79
2022/03/26 04:48:55;;;;;;;163.07;93.90;;;3.70;99.90;;;;;;5106790;28;20047;-78
2022/03/26 04:51:20;;;;;;;172.20;98.38;;;3.80;99.90;;;;;;5107984;28;20498;-79
2022/03/26 04:53:46;;;;;;;166.68;96.55;;;3.80;99.90;;;;;;5106812;28;20040;-78
2022/03/26 04:56:12;;;;;;;184.95;100.85;;;3.90;99.90;;;;;;5111096;28;20473;-80
2022/03/26 04:58:37;;;;;;;190.88;101.07;;;3.90;99.90;;;;;;5110644;27;20071;-78
2022/03/26 05:01:04;;;;;;;176.65;97.10;;;3.90;99.90;;;;;;5113121;28;20044;-78
2022/03/26 05:03:30;;;;;;;185.23;101.20;;;3.90;99.90;;;;;;5111092;28;20043;-79
2022/03/26 05:05:55;;;;;;;173.38;97.35;;;4.00;99.90;;;;;;5114584;28;20040;-78
2022/03/26 05:08:21;;;;;;;185.23;99.53;;;4.00;99.90;;;;;;5113765;28;20074;-77
2022/03/26 05:10:47;;;;;;;176.55;98.10;;;4.00;99.90;;;;;;5102758;28;20036;-76
2022/03/26 05:13:12;;;;;;;175.68;97.00;;;4.00;99.90;;;;;;5111120;28;20040;-78
2022/03/26 05:15:38;;;;;;;170.55;98.05;;;4.10;99.90;;;;;;5111436;28;20045;-79
2022/03/26 05:18:03;;;;;;;191.70;102.25;;;4.10;99.90;;;;;;5115204;28;20674;-78
2022/03/26 05:20:29;;;;;;;174.15;96.13;;;4.10;99.90;;;;;;5098753;28;20101;-79
2022/03/26 05:22:55;;;;;;;196.63;103.95;;;4.10;99.90;;;;;;5113067;28;20079;-78
2022/03/26 05:25:21;;;;;;;185.52;94.70;;;4.20;99.90;;;;;;5111404;28;20048;-79
2022/03/26 05:27:49;;;;;;;183.85;103.03;;;4.10;99.90;;;;;;5112559;28;20044;-78
2022/03/26 05:30:16;;;;;;;157.60;91.40;;;4.10;99.90;;;;;;5101200;28;20031;-79
2022/03/26 05:32:42;;;;;;;165.55;90.70;;;4.00;99.90;;;;;;5112985;28;20031;-80
2022/03/26 05:35:13;;;;;;;167.73;93.03;;;3.60;99.90;;;;;;5105195;27;20031;-80
2022/03/26 05:37:41;;;;;;;167.00;91.50;;;3.60;99.90;;;;;;5110529;28;20131;-79
2022/03/26 05:40:07;;;;;;;153.50;89.72;;;3.70;99.90;;;;;;5108386;28;20043;-80
2022/03/26 05:42:35;;;;;;;172.40;91.43;;;3.80;99.90;;;;;;5109224;28;20130;-78
2022/03/26 05:45:02;;;;;;;154.50;89.07;;;3.80;99.90;;;;;;5107240;28;20092;-78
2022/03/26 05:47:29;;;;;;;161.07;93.63;;;3.90;99.90;;;;;;5111756;27;20070;-80
2022/03/26 05:49:55;;;;;;;163.32;92.55;;;4.00;99.90;;;;;;5108525;28;20505;-78
2022/03/26 05:52:20;;;;;;;148.95;83.72;;;4.10;99.90;;;;;;5110701;28;20433;-78
2022/03/26 05:54:46;;;;;;;152.80;88.18;;;4.10;99.90;;;;;;5111476;28;20035;-78
2022/03/26 05:57:13;;;;;;;153.80;91.50;;;4.10;99.90;;;;;;5111138;27;20044;-79
2022/03/26 05:59:38;;;;;;;170.45;94.15;;;4.20;99.90;;;;;;5104370;27;20460;-83
2022/03/26 06:02:04;;;;;;;146.18;85.32;;;4.20;99.90;;;;;;5112011;28;20075;-77
2022/03/26 06:04:30;;;;;;;148.40;85.85;;;4.40;99.90;;;;;;5112013;28;20050;-81
2022/03/26 06:06:56;;;;;;;159.20;87.82;;;4.40;99.90;;;;;;5112285;28;20409;-81
2022/03/26 06:09:22;;;;;;;152.57;85.38;;;4.40;99.90;;;;;;5107680;28;20084;-86
2022/03/26 06:11:48;;;;;;;151.70;86.05;;;4.60;99.90;;;;;;5091267;28;20367;-88
2022/03/26 06:14:14;;;;;;;158.63;92.97;;;4.60;99.90;;;;;;5113298;28;20379;-87
2022/03/26 06:16:39;;;;;;;151.20;87.65;;;4.60;99.90;;;;;;5110443;28;20043;-83
2022/03/26 06:19:05;;;;;;;148.05;86.20;;;4.70;99.90;;;;;;5112275;28;20474;-86
2022/03/26 06:21:31;;;;;;;157.05;87.63;;;4.80;99.90;;;;;;5108747;28;20386;-85
2022/03/26 06:23:58;;;;;;;140.38;82.05;;;4.90;99.90;;;;;;5095078;28;20047;-84
2022/03/26 06:26:25;;;;;;;141.45;83.38;;;4.80;99.90;;;;;;5111849;28;20497;-84
2022/03/26 06:28:52;;;;;;;128.27;75.43;;;4.90;99.90;;;;;;5093195;28;20044;-83
2022/03/26 06:31:18;;;;;;;124.25;79.05;;;4.90;99.90;;;;;;5106415;28;20049;-83
2022/03/26 06:33:44;;;;;;;119.57;73.63;;;5.00;99.90;;;;;;5115468;28;20044;-86
2022/03/26 06:36:09;;;;;;;115.53;72.75;;;5.10;99.90;;;;;;5117016;28;20085;-82
2022/03/26 06:38:38;;;;;;;120.10;74.25;;;5.10;99.90;;;;;;5129037;28;20152;-84
2022/03/26 06:41:14;;;;;;;115.20;73.32;;;5.20;99.90;;;;;;5125689;27;20058;-84
2022/03/26 06:43:40;;;;;;;117.28;71.78;;;5.40;99.90;;;;;;5119412;28;20035;-82
2022/03/26 06:46:06;;;;;;;125.50;75.57;;;5.50;99.90;;;;;;5132885;28;20036;-82
2022/03/26 06:48:32;;;;;;;118.78;74.47;;;5.50;99.90;;;;;;5118664;28;20042;-85
2022/03/26 06:51:00;;;;;;;127.03;75.10;;;5.70;99.90;;;;;;5112975;28;20118;-86
2022/03/26 06:53:28;;;;;;;127.97;78.03;;;5.80;99.90;;;;;;5111237;28;20047;-85
2022/03/26 06:55:54;;;;;;;132.48;82.65;;;5.80;99.90;;;;;;5110265;27;20061;-84
2022/03/26 06:58:19;;;;;;;137.52;86.75;;;5.90;99.90;;;;;;5112656;27;20044;-84
2022/03/26 07:00:45;;;;;;;137.30;76.70;;;6.00;99.90;;;;;;5112168;28;20115;-85
2022/03/26 07:03:11;;;;;;;146.13;88.75;;;6.10;99.90;;;;;;5112204;28;20105;-86
2022/03/26 07:05:37;;;;;;;137.45;83.82;;;6.20;99.90;;;;;;5111932;28;20077;-86
2022/03/26 07:08:03;;;;;;;137.55;88.20;;;6.40;99.90;;;;;;5111415;28;20489;-84
2022/03/26 07:10:29;;;;;;;138.00;86.18;;;6.50;99.90;;;;;;5108764;28;20096;-84
2022/03/26 07:12:54;;;;;;;133.38;83.10;;;6.70;99.90;;;;;;5111714;28;20058;-83
2022/03/26 07:15:20;;;;;;;142.45;84.35;;;6.80;99.90;;;;;;5110438;28;20051;-86
2022/03/26 07:17:45;;;;;;;135.13;85.03;;;6.90;99.90;;;;;;5110482;28;20047;-85
2022/03/26 07:20:11;;;;;;;141.40;85.43;;;7.30;99.90;;;;;;5112003;28;20038;-86
2022/03/26 07:22:38;;;;;;;147.07;84.75;;;7.50;99.90;;;;;;5111566;28;20060;-85
2022/03/26 07:25:04;;;;;;;149.52;87.53;;;7.70;99.90;;;;;;5109617;28;20047;-86
2022/03/26 07:27:34;;;;;;;139.15;86.80;;;8.00;99.90;;;;;;5111995;28;20039;-86
2022/03/26 07:30:00;;;;;;;136.95;85.60;;;8.10;99.90;;;;;;5112718;28;20501;-87
2022/03/26 07:32:26;;;;;;;137.23;82.95;;;8.30;99.90;;;;;;5120741;28;20555;-88
2022/03/26 07:34:53;;;;;;;128.60;80.93;;;8.40;99.90;;;;;;5110238;28;20436;-84
2022/03/26 07:37:19;;;;;;;151.05;84.80;;;8.50;99.90;;;;;;5109892;28;20043;-86
2022/03/26 07:39:45;;;;;;;129.73;82.38;;;8.60;99.90;;;;;;5111211;28;20031;-85
2022/03/26 07:42:11;;;;;;;129.35;80.05;;;8.70;99.90;;;;;;5109248;28;20043;-86
2022/03/26 07:44:37;;;;;;;122.57;78.00;;;8.80;99.90;;;;;;5110257;28;20052;-85
2022/03/26 07:47:03;;;;;;;123.35;73.75;;;8.90;99.90;;;;;;5112632;28;20039;-85
2022/03/26 07:49:28;;;;;;;118.93;75.07;;;9.00;99.90;;;;;;5102569;28;20043;-86
2022/03/26 07:51:54;;;;;;;124.18;74.90;;;9.20;99.90;;;;;;5111426;28;20046;-85
2022/03/26 07:54:20;;;;;;;114.85;73.97;;;9.30;99.90;;;;;;5108850;28;20044;-87
2022/03/26 07:56:45;;;;;;;113.30;74.15;;;9.30;99.90;;;;;;5112565;28;20096;-86
2022/03/26 07:59:11;;;;;;;116.93;73.65;;;9.40;99.90;;;;;;5110841;28;20039;-85
2022/03/26 08:01:37;;;;;;;109.53;68.22;;;9.50;99.90;;;;;;5109307;28;20447;-87
2022/03/26 08:04:03;;;;;;;102.47;66.43;;;9.70;99.90;;;;;;5099884;28;20044;-86
2022/03/26 08:06:28;;;;;;;108.63;66.97;;;9.70;99.90;;;;;;5109880;27;20077;-87
2022/03/26 08:08:54;;;;;;;102.07;67.63;;;9.80;99.90;;;;;;5111463;28;20115;-88
2022/03/26 08:11:19;;;;;;;96.70;64.78;;;9.90;99.90;;;;;;5112077;28;20044;-88
2022/03/26 08:13:45;;;;;;;91.55;56.50;;;10.10;99.90;;;;;;5109089;28;20500;-87
2022/03/26 08:16:11;;;;;;;88.35;56.58;;;10.10;99.90;;;;;;5110585;28;20118;-87
2022/03/26 08:18:37;;;;;;;103.93;61.67;;;10.20;99.90;;;;;;5111165;28;20098;-88
2022/03/26 08:21:03;;;;;;;87.90;55.63;;;10.40;99.90;;;;;;5112596;28;20044;-87
2022/03/26 08:23:29;;;;;;;101.43;59.70;;;10.50;99.90;;;;;;5113621;28;20051;-90
2022/03/26 08:28:39;;;;;;;89.28;55.35;;;10.70;99.90;;;;;;5110957;28;20048;-80
2022/03/26 08:31:06;;;;;;;86.63;54.97;;;10.80;99.90;;;;;;5114507;28;20040;-83
2022/03/26 08:33:31;;;;;;;85.32;53.17;;;11.00;99.90;;;;;;5115049;28;20039;-84
2022/03/26 08:35:57;;;;;;;78.28;50.30;;;11.00;99.90;;;;;;5116662;28;20040;-82
2022/03/26 08:38:23;;;;;;;82.63;50.85;;;11.10;99.90;;;;;;5113672;27;20401;-83
2022/03/26 08:40:48;;;;;;;83.60;54.17;;;11.30;99.90;;;;;;5098888;28;20063;-85
2022/03/26 08:43:15;;;;;;;75.28;47.33;;;11.40;99.90;;;;;;5099058;28;20834;-85
2022/03/26 08:45:41;;;;;;;73.03;44.22;;;11.40;99.90;;;;;;5117609;28;20047;-84
2022/03/26 08:48:08;;;;;;;68.78;45.53;;;11.40;99.90;;;;;;5116314;28;20059;-82
2022/03/26 08:50:34;;;;;;;79.65;43.92;;;11.50;99.90;;;;;;5114845;28;20031;-84
2022/03/26 08:53:00;;;;;;;79.45;46.40;;;11.70;99.90;;;;;;5116512;28;20491;-83
2022/03/26 08:55:26;;;;;;;82.60;47.25;;;11.70;99.90;;;;;;5114106;28;20040;-83
2022/03/26 08:57:52;;;;;;;70.05;44.33;;;11.70;99.90;;;;;;5115367;28;20048;-83
2022/03/26 09:00:18;;;;;;;76.10;47.95;;;11.70;99.90;;;;;;5112469;28;20040;-83
2022/03/26 09:02:44;;;;;;;73.28;46.95;;;11.90;99.90;;;;;;5114170;28;20040;-83
2022/03/26 09:05:14;;;;;;;75.47;50.17;;;12.00;99.90;;;;;;5115554;27;20036;-85
2022/03/26 09:07:40;;;;;;;74.97;47.03;;;12.00;99.90;;;;;;5115007;28;20047;-87
2022/03/26 09:10:06;;;;;;;69.68;47.58;;;12.10;99.90;;;;;;5113927;28;20093;-86
2022/03/26 09:12:32;;;;;;;64.20;42.83;;;12.10;99.90;;;;;;5113551;28;20040;-85
2022/03/26 09:14:59;;;;;;;65.18;39.35;;;12.20;99.90;;;;;;5096392;28;20042;-85
2022/03/26 09:17:25;;;;;;;60.97;38.13;;;12.20;99.90;;;;;;5113818;28;20664;-84
2022/03/26 09:19:50;;;;;;;56.72;36.95;;;12.40;99.90;;;;;;5116182;28;20067;-83
2022/03/26 09:22:16;;;;;;;58.65;35.97;;;12.50;99.90;;;;;;5119004;27;20509;-86
2022/03/26 09:24:42;;;;;;;57.63;36.35;;;12.50;99.90;;;;;;5135230;28;20050;-85
2022/03/26 09:27:11;;;;;;;56.97;37.50;;;12.60;99.90;;;;;;5126290;28;20031;-86
2022/03/26 09:29:37;;;;;;;60.55;41.17;;;12.60;99.90;;;;;;5128819;28;20030;-80
2022/03/26 09:32:03;;;;;;;58.13;37.08;;;12.80;99.90;;;;;;5138165;28;20020;-84
2022/03/26 09:34:29;;;;;;;46.97;32.67;;;12.90;99.90;;;;;;5120151;28;20044;-86
2022/03/26 09:36:55;;;;;;;45.13;30.27;;;12.90;99.90;;;;;;5116829;28;20687;-86
2022/03/26 09:39:21;;;;;;;43.08;29.02;;;13.00;99.90;;;;;;5113798;28;20447;-85
2022/03/26 09:41:47;;;;;;;40.85;28.27;;;13.10;99.90;;;;;;5112578;28;20047;-81
2022/03/26 09:44:14;;;;;;;48.30;30.42;;;13.20;99.90;;;;;;5114087;27;20051;-85
2022/03/26 09:46:39;;;;;;;46.30;30.98;;;13.20;99.90;;;;;;5112819;28;20051;-85
2022/03/26 09:49:06;;;;;;;45.67;30.35;;;13.30;99.90;;;;;;5113364;28;20039;-84
2022/03/26 09:51:33;;;;;;;40.40;26.73;;;13.40;99.90;;;;;;5114087;28;20039;-85
2022/03/26 09:53:58;;;;;;;38.78;26.92;;;13.40;99.90;;;;;;5112647;28;20044;-77
2022/03/26 09:56:25;;;;;;;39.45;27.73;;;13.40;99.90;;;;;;5113736;28;20489;-84
2022/03/26 09:58:54;;;;;;;42.80;28.00;;;13.40;99.90;;;;;;5116285;28;20047;-86
2022/03/26 10:01:20;;;;;;;41.40;28.67;;;13.50;99.90;;;;;;5096204;28;20241;-87
2022/03/26 10:04:15;;;;;;;40.53;24.73;;;13.60;99.90;;;;;;5118567;28;20024;-85
2022/03/26 10:06:55;;;;;;;41.20;24.92;;;13.60;99.90;;;;;;5131895;27;20049;-85
2022/03/26 10:09:33;;;;;;;32.25;20.92;;;13.70;99.90;;;;;;5112464;28;20103;-85
2022/03/26 10:12:10;;;;;;;30.25;20.33;;;13.80;99.90;;;;;;5118342;28;20130;-85
2022/03/26 10:14:51;;;;;;;24.05;16.40;;;13.80;99.90;;;;;;5135009;28;20040;-81
2022/03/26 10:17:17;;;;;;;23.33;17.55;;;13.90;99.90;;;;;;5136086;28;20043;-76
2022/03/26 10:19:57;;;;;;;25.15;19.02;;;13.80;99.90;;;;;;5125123;28;20040;-84
2022/03/26 10:22:34;;;;;;;23.10;17.35;;;14.00;99.90;;;;;;5121875;28;20059;-83
2022/03/26 10:25:02;;;;;;;19.15;13.75;;;14.00;99.90;;;;;;5113951;27;20173;-84
2022/03/26 10:27:34;;;;;;;17.00;12.60;;;14.10;99.90;;;;;;5118786;28;20043;-84
2022/03/26 10:29:59;;;;;;;19.48;11.73;;;14.20;99.90;;;;;;5122355;28;20039;-83
2022/03/26 10:32:40;;;;;;;17.92;11.80;;;14.20;99.90;;;;;;5120373;28;20060;-86
2022/03/26 10:35:10;;;;;;;23.42;15.10;;;14.10;99.90;;;;;;5112790;27;20400;-87
2022/03/26 10:38:03;;;;;;;16.48;12.23;;;14.20;99.90;;;;;;5113073;28;20054;-87
2022/03/26 10:40:33;;;;;;;21.20;12.65;;;14.30;99.90;;;;;;5110565;28;20140;-87
2022/03/26 10:43:01;;;;;;;26.23;14.60;;;14.30;99.90;;;;;;5111509;28;20516;-88
2022/03/26 10:45:29;;;;;;;18.15;13.50;;;14.30;99.90;;;;;;5112610;28;20042;-88
2022/03/26 10:47:57;;;;;;;27.73;13.57;;;14.60;99.90;;;;;;5111806;28;20040;-84
2022/03/26 10:50:24;;;;;;;20.42;13.20;;;14.70;99.90;;;;;;5112183;28;20400;-86
2022/03/26 10:52:54;;;;;;;21.20;13.45;;;14.60;99.90;;;;;;5112443;28;20040;-89
2022/03/26 10:55:21;;;;;;;15.82;12.07;;;14.60;99.90;;;;;;5113491;28;20078;-86
2022/03/26 10:57:48;;;;;;;14.25;10.35;;;14.60;99.90;;;;;;5114070;28;20024;-87
2022/03/26 11:00:16;;;;;;;15.90;10.07;;;14.60;99.90;;;;;;5119830;28;20057;-87
2022/03/26 11:02:43;;;;;;;16.35;10.45;;;14.70;99.90;;;;;;5126505;28;20047;-88
2022/03/26 11:05:10;;;;;;;13.25;10.05;;;14.90;99.90;;;;;;5114539;28;20153;-87
2022/03/26 11:07:37;;;;;;;16.60;11.63;;;14.90;99.90;;;;;;5116630;28;20047;-87
2022/03/26 11:10:08;;;;;;;16.92;10.23;;;14.90;99.90;;;;;;5104295;28;20036;-90
2022/03/26 11:12:35;;;;;;;19.67;8.82;;;14.80;99.90;;;;;;5114600;28;20035;-89
2022/03/26 11:15:08;;;;;;;12.60;8.48;;;14.90;99.90;;;;;;5115542;28;20145;-91
2022/03/26 11:18:01;;;;;;;11.18;7.78;;;14.90;99.90;;;;;;5102087;28;20063;-89
2022/03/26 11:20:52;;;;;;;11.95;7.20;;;14.90;99.90;;;;;;5114391;27;20374;-91
2022/03/26 11:23:55;;;;;;;12.85;7.40;;;14.80;99.90;;;;;;5112298;28;20067;-89
2022/03/26 11:26:45;;;;;;;11.80;7.15;;;14.90;99.90;;;;;;5113187;28;20054;-89
2022/03/26 11:29:35;;;;;;;9.40;6.82;;;14.90;99.90;;;;;;5114326;28;20047;-90
2022/03/26 11:32:15;;;;;;;;;;;14.90;99.90;;;;;;5114772;28;20047;-89
2022/03/26 11:34:41;;;;;;;10.65;6.80;;;14.80;99.90;;;;;;5123814;28;19947;-88
2022/03/26 11:37:22;;;;;;;9.60;7.40;;;14.90;99.90;;;;;;5132528;28;20035;-87
2022/03/26 11:39:51;;;;;;;8.98;7.18;;;14.90;99.90;;;;;;5114423;28;20459;-82
2022/03/26 11:42:38;;;;;;;10.23;6.88;;;15.00;99.90;;;;;;5111915;28;20111;-84
2022/03/26 11:51:16;;;;;;;10.40;7.25;;;15.00;99.90;;;;;;5110275;28;20086;-82
2022/03/26 11:53:44;;;;;;;11.32;6.85;;;15.30;99.90;;;;;;5109393;28;20051;-83
2022/03/26 11:56:28;;;;;;;9.98;7.15;;;15.20;99.90;;;;;;5110990;27;21033;-83
2022/03/26 11:59:03;;;;;;;13.18;8.38;;;15.00;99.90;;;;;;5109521;28;20047;-82
2022/03/26 12:01:40;;;;;;;10.27;6.72;;;14.90;99.90;;;;;;5109259;28;20046;-81
2022/03/26 12:04:26;;;;;;;8.88;5.15;;;15.10;99.90;;;;;;5109059;28;20493;-81
2022/03/26 12:06:54;;;;;;;8.40;5.97;;;15.10;99.90;;;;;;5110265;28;20435;-83
2022/03/26 12:09:38;;;;;;;8.85;5.15;;;15.00;99.90;;;;;;5112684;28;20068;-81
2022/03/26 12:12:12;;;;;;;13.75;6.40;;;14.90;99.90;;;;;;5129806;28;20055;-80
2022/03/26 12:15:05;;;;;;;7.90;6.13;;;14.90;99.90;;;;;;5115032;28;20051;-83
2022/03/26 12:17:53;;;;;;;7.93;5.35;;;14.80;99.90;;;;;;5118287;28;20094;-76
2022/03/26 12:20:19;;;;;;;12.77;5.57;;;14.80;99.90;;;;;;5108875;28;20048;-84
2022/03/26 12:22:44;;;;;;;10.38;6.35;;;14.80;99.90;;;;;;5114096;28;20520;-85
2022/03/26 12:25:16;;;;;;;9.38;5.43;;;14.90;99.90;;;;;;5112551;28;20079;-85
2022/03/26 12:27:43;;;;;;;11.63;6.57;;;14.90;99.90;;;;;;5110581;28;20056;-85
2022/03/26 12:30:14;;;;;;;13.73;7.13;;;15.20;99.90;;;;;;5108057;28;20040;-85
2022/03/26 12:32:41;;;;;;;11.50;6.38;;;15.20;99.90;;;;;;5110878;27;20050;-86
2022/03/26 12:35:09;;;;;;;11.70;7.68;;;15.20;99.90;;;;;;5102437;28;20043;-87
2022/03/26 12:37:35;;;;;;;13.88;6.85;;;15.20;99.90;;;;;;5115874;27;20086;-82
2022/03/26 12:40:04;;;;;;;10.13;4.68;;;15.20;99.90;;;;;;5110720;27;20035;-84